Time;durP1;ratioP1;P1;durP2;ratioP2;P2;SDS_P1;SDS_P2;PMS_P1;PMS_P2;Temp;Humidity;BMP_temperature;BMP_pressure;BME280_temperature;BME280_humidity;BME280_pressure;Samples;Min_cycle;Max_cycle;Signal;HPM_P1;HPM_P2
2022/03/13 00:00:54;;;;;;;17.40;8.27;;;;;;;2.17;82.63;98320.47;5004304;28;20026;-66
2022/03/13 00:03:22;;;;;;;19.73;9.02;;;;;;;2.25;83.00;98324.00;5004132;28;20021;-66
2022/03/13 00:05:50;;;;;;;18.52;9.70;;;;;;;2.20;83.85;98319.63;5004330;28;20022;-66
2022/03/13 00:08:31;;;;;;;20.15;9.35;;;;;;;1.99;84.22;98325.50;5004046;28;20029;-66
2022/03/13 00:11:08;;;;;;;28.55;9.35;;;;;;;2.02;85.67;98319.47;5004014;28;21160;-66
2022/03/13 00:13:37;;;;;;;15.48;7.80;;;;;;;1.96;85.70;98322.00;5003950;28;20021;-66
2022/03/13 00:16:08;;;;;;;19.40;9.70;;;;;;;1.94;86.15;98318.53;5003929;28;20046;-66
2022/03/13 00:18:45;;;;;;;14.00;7.53;;;;;;;1.98;86.20;98328.97;5005557;28;20018;-66
2022/03/13 00:21:11;;;;;;;15.32;7.88;;;;;;;2.05;86.02;98327.28;5007974;28;20022;-66
2022/03/13 00:23:36;;;;;;;14.13;8.38;;;;;;;2.01;84.90;98323.81;5007862;28;20027;-66
2022/03/13 00:26:03;;;;;;;16.67;8.02;;;;;;;1.96;85.47;98324.59;5008078;28;20018;-66
2022/03/13 00:28:29;;;;;;;20.58;8.23;;;;;;;1.70;84.75;98320.88;5007814;28;20025;-66
2022/03/13 00:30:55;;;;;;;14.23;7.63;;;;;;;1.75;85.48;98324.41;5008449;28;20076;-66
2022/03/13 00:33:20;;;;;;;16.83;8.82;;;;;;;1.73;86.12;98318.31;5007897;28;20025;-66
2022/03/13 00:35:46;;;;;;;22.42;9.45;;;;;;;1.65;85.65;98323.41;5007900;28;20045;-66
2022/03/13 00:38:11;;;;;;;20.58;7.68;;;;;;;1.60;85.30;98313.88;5007879;28;20038;-66
2022/03/13 00:40:37;;;;;;;18.27;7.90;;;;;;;1.50;85.52;98323.28;5007803;28;20089;-66
2022/03/13 00:43:04;;;;;;;20.23;9.07;;;;;;;1.49;86.15;98320.66;5007681;28;20313;-66
2022/03/13 00:45:29;;;;;;;14.07;8.30;;;;;;;1.51;85.70;98316.34;5007838;28;20333;-66
2022/03/13 00:47:56;;;;;;;18.92;8.10;;;;;;;1.39;85.70;98319.69;5007545;28;20018;-66
2022/03/13 00:50:21;;;;;;;19.90;8.10;;;;;;;1.39;86.05;98324.03;5007818;28;20030;-66
2022/03/13 00:52:47;;;;;;;23.90;11.45;;;;;;;1.23;85.89;98322.09;5007449;28;20085;-66
2022/03/13 00:55:12;;;;;;;21.50;9.80;;;;;;;1.27;87.38;98329.91;5007757;28;20018;-66
2022/03/13 00:57:38;;;;;;;17.40;8.88;;;;;;;1.20;86.40;98338.47;5007527;28;20073;-66
2022/03/13 01:00:05;;;;;;;24.85;10.35;;;;;;;0.94;86.26;98323.44;5007593;28;20019;-66
2022/03/13 01:02:31;;;;;;;18.15;10.18;;;;;;;0.93;87.63;98332.06;5007963;28;20085;-66
2022/03/13 01:04:56;;;;;;;22.70;10.52;;;;;;;1.03;87.52;98334.78;5007991;28;20018;-66
2022/03/13 01:07:22;;;;;;;24.08;10.43;;;;;;;1.03;87.10;98328.72;5007612;28;20033;-66
2022/03/13 01:09:47;;;;;;;26.88;12.48;;;;;;;1.00;87.28;98324.38;5007323;28;20045;-66
2022/03/13 01:12:13;;;;;;;42.60;15.52;;;;;;;0.96;87.52;98330.41;5007260;28;20018;-66
2022/03/13 01:14:39;;;;;;;32.67;14.88;;;;;;;0.97;87.28;98329.53;5007128;28;20042;-66
2022/03/13 01:17:06;;;;;;;34.80;15.75;;;;;;;0.91;87.58;98323.38;5007164;28;20441;-66
2022/03/13 01:19:32;;;;;;;32.28;16.02;;;;;;;0.90;87.93;98321.66;5007225;28;20333;-66
2022/03/13 01:21:57;;;;;;;36.28;17.67;;;;;;;0.86;87.97;98319.88;5007017;28;20089;-66
2022/03/13 01:24:43;;;;;;;31.42;13.80;;;;;;;0.75;87.61;98326.63;5007147;28;20249;-66
2022/03/13 01:27:09;;;;;;;30.15;14.73;;;;;;;0.88;87.89;98328.56;5007037;28;20037;-66
2022/03/13 01:29:35;;;;;;;30.83;13.68;;;;;;;0.95;87.55;98330.38;5006391;28;20033;-66
2022/03/13 01:32:01;;;;;;;24.02;11.60;;;;;;;0.96;87.17;98326.91;5006726;28;20085;-66
2022/03/13 01:34:43;;;;;;;27.17;11.77;;;;;;;0.77;86.98;98325.81;5006923;28;20030;-66
2022/03/13 01:37:33;;;;;;;23.52;9.75;;;;;;;0.72;87.64;98321.41;5007210;28;20303;-66
2022/03/13 01:40:01;;;;;;;24.33;10.68;;;;;;;0.80;87.88;98315.50;5006717;28;20045;-66
2022/03/13 01:42:26;;;;;;;40.83;14.90;;;;;;;0.87;88.91;98311.25;5006654;28;20203;-66
2022/03/13 01:44:52;;;;;;;37.92;17.35;;;;;;;0.96;89.41;98316.56;5006699;28;20053;-66
2022/03/13 01:47:19;;;;;;;39.45;15.75;;;;;;;0.92;88.86;98309.59;5006613;28;20026;-66
2022/03/13 01:49:45;;;;;;;27.35;12.27;;;;;;;0.84;89.08;98309.50;5006512;28;20026;-66
2022/03/13 01:52:11;;;;;;;28.50;14.10;;;;;;;0.81;88.67;98303.38;5006522;28;20033;-66
2022/03/13 01:54:40;;;;;;;28.00;12.48;;;;;;;0.77;89.00;98309.38;5006693;28;20033;-66
2022/03/13 01:57:05;;;;;;;21.95;12.23;;;;;;;0.74;89.68;98299.00;5006545;28;20073;-66
2022/03/13 01:59:31;;;;;;;25.85;11.65;;;;;;;0.88;89.33;98302.66;5006278;28;20026;-66
2022/03/13 02:01:57;;;;;;;30.48;12.80;;;;;;;1.03;88.84;98287.28;5006479;28;20049;-66
2022/03/13 02:04:26;;;;;;;24.63;12.77;;;;;;;1.12;88.53;98283.09;5006517;28;20037;-66
2022/03/13 02:06:55;;;;;;;27.98;12.05;;;;;;;1.11;88.55;98280.47;5006764;28;20030;-66
2022/03/13 02:09:21;;;;;;;33.40;14.27;;;;;;;1.16;88.95;98278.78;5006236;28;20026;-66
2022/03/13 02:11:47;;;;;;;27.25;12.02;;;;;;;1.28;88.13;98273.75;5006165;28;20033;-66
2022/03/13 02:14:17;;;;;;;42.00;14.48;;;;;;;1.33;87.92;98265.16;5005645;28;20162;-66
2022/03/13 02:16:43;;;;;;;33.95;12.70;;;;;;;1.42;87.35;98266.97;5005900;28;20038;-66
2022/03/13 02:19:08;;;;;;;29.08;12.60;;;;;;;1.49;87.26;98263.63;5005992;28;20037;-66
2022/03/13 02:21:40;;;;;;;20.92;10.55;;;;;;;1.53;87.42;98266.25;5006131;28;20090;-66
2022/03/13 02:24:12;;;;;;;23.25;11.45;;;;;;;1.62;87.39;98270.66;4998265;28;20214;-66
2022/03/13 02:26:37;;;;;;;20.98;10.88;;;;;;;1.90;86.92;98276.09;5005943;28;20273;-66
2022/03/13 02:29:03;;;;;;;24.05;10.80;;;;;;;2.13;85.89;98281.50;5005729;28;20030;-66
2022/03/13 02:31:36;;;;;;;25.55;11.82;;;;;;;2.28;85.25;98279.03;5005335;28;20022;-66
2022/03/13 02:34:02;;;;;;;26.60;13.07;;;;;;;2.36;85.11;98285.13;5006087;28;20332;-66
2022/03/13 02:36:27;;;;;;;24.27;12.70;;;;;;;2.25;85.44;98281.59;5005596;28;20026;-66
2022/03/13 02:38:53;;;;;;;39.10;15.27;;;;;;;2.25;85.18;98281.59;5005663;28;20073;-66
2022/03/13 02:41:19;;;;;;;34.58;13.23;;;;;;;2.29;85.29;98285.97;5005307;28;20025;-66
2022/03/13 02:43:45;;;;;;;28.75;13.50;;;;;;;2.33;84.95;98282.50;5005682;28;20030;-66
2022/03/13 02:46:22;;;;;;;32.53;13.60;;;;;;;2.11;85.47;98278.91;5005300;28;20029;-66
2022/03/13 02:48:49;;;;;;;28.83;12.68;;;;;;;2.18;85.02;98274.59;5005272;28;20022;-66
2022/03/13 02:51:14;;;;;;;29.85;14.45;;;;;;;2.18;84.77;98280.69;5005357;28;20026;-66
2022/03/13 02:53:40;;;;;;;35.25;15.25;;;;;;;2.24;84.32;98279.84;5005679;28;20014;-66
2022/03/13 02:56:06;;;;;;;29.73;14.57;;;;;;;2.25;84.32;98281.59;5005612;28;20025;-66
2022/03/13 02:58:33;;;;;;;38.33;15.38;;;;;;;2.30;85.51;98273.84;5001391;28;20018;-66
2022/03/13 03:00:58;;;;;;;33.58;12.82;;;;;;;2.32;85.24;98270.41;5004131;28;20258;-66
2022/03/13 03:03:24;;;;;;;28.73;12.80;;;;;;;2.29;85.42;98270.38;5005375;28;20022;-66
2022/03/13 03:05:50;;;;;;;30.17;13.25;;;;;;;2.26;85.67;98272.94;5005141;28;20029;-66
2022/03/13 03:08:16;;;;;;;36.25;14.93;;;;;;;2.12;86.51;98269.41;5005311;28;20380;-66
2022/03/13 03:10:43;;;;;;;38.50;14.32;;;;;;;2.02;86.58;98264.97;5005303;28;20037;-66
2022/03/13 03:13:08;;;;;;;40.20;16.15;;;;;;;1.98;86.55;98265.78;5005539;28;20102;-66
2022/03/13 03:15:34;;;;;;;33.72;16.88;;;;;;;1.94;86.92;98266.63;5005200;28;20334;-66
2022/03/13 03:18:01;;;;;;;36.97;15.20;;;;;;;1.87;86.81;98264.84;5003635;28;20014;-66
2022/03/13 03:20:27;;;;;;;35.05;16.15;;;;;;;1.87;87.25;98267.44;5005157;28;20033;-66
2022/03/13 03:22:53;;;;;;;41.97;17.13;;;;;;;1.87;87.13;98267.44;5004803;28;20045;-66
2022/03/13 03:25:24;;;;;;;34.25;15.30;;;;;;;1.93;87.32;98272.69;5004908;28;20044;-66
2022/03/13 03:27:50;;;;;;;40.42;15.38;;;;;;;1.89;87.26;98273.50;5004481;28;20026;-66
2022/03/13 03:30:27;;;;;;;40.13;15.93;;;;;;;1.85;87.26;98276.94;5004672;28;20024;-66
2022/03/13 03:32:54;;;;;;;29.92;15.18;;;;;;;1.89;87.30;98270.91;4999396;28;20022;-66
2022/03/13 03:35:25;;;;;;;30.48;12.55;;;;;;;1.72;86.83;98273.38;5005023;28;20033;-66
2022/03/13 03:37:52;;;;;;;35.78;16.15;;;;;;;1.65;87.48;98265.50;5004971;28;20023;-66
2022/03/13 03:40:28;;;;;;;37.40;16.27;;;;;;;1.69;88.00;98267.28;5004903;28;20106;-66
2022/03/13 03:42:59;;;;;;;29.00;13.18;;;;;;;1.60;87.80;98267.19;5004326;28;20022;-66
2022/03/13 03:45:24;;;;;;;34.17;15.48;;;;;;;1.60;88.30;98272.38;5004536;28;20026;-66
2022/03/13 03:47:50;;;;;;;40.58;19.08;;;;;;;1.59;88.61;98270.63;5004376;28;20072;-66
2022/03/13 03:50:17;;;;;;;37.47;17.75;;;;;;;1.55;89.17;98268.88;5004316;28;20022;-66
2022/03/13 03:52:45;;;;;;;42.65;16.92;;;;;;;1.52;88.98;98268.84;5004111;28;20033;-66
2022/03/13 03:55:11;;;;;;;28.40;13.25;;;;;;;1.45;88.54;98267.91;5004322;28;20030;-66
2022/03/13 03:57:36;;;;;;;32.22;13.73;;;;;;;1.54;88.54;98277.47;5004429;28;20042;-66
2022/03/13 04:00:05;;;;;;;33.35;16.30;;;;;;;1.42;88.00;98277.34;5004271;28;20045;-66
2022/03/13 04:02:31;;;;;;;34.50;14.70;;;;;;;1.47;88.46;98275.69;5004087;28;20049;-66
2022/03/13 04:04:57;;;;;;;30.17;13.80;;;;;;;1.46;88.75;98271.38;5004134;28;20061;-66
2022/03/13 04:07:22;;;;;;;24.60;11.70;;;;;;;1.37;88.15;98279.94;5004117;28;20022;-66
2022/03/13 04:09:48;;;;;;;28.95;11.38;;;;;;;1.35;88.17;98278.16;5004177;28;20018;-66
2022/03/13 04:12:14;;;;;;;27.58;13.65;;;;;;;1.36;89.00;98277.31;5004110;28;20022;-66
2022/03/13 04:14:40;;;;;;;26.55;11.45;;;;;;;1.39;89.39;98282.53;5003699;28;20392;-66
2022/03/13 04:17:06;;;;;;;27.75;12.35;;;;;;;1.39;89.74;98282.53;5004037;28;20041;-66
2022/03/13 04:19:31;;;;;;;34.22;14.15;;;;;;;1.46;89.59;98286.94;5004166;28;20026;-66
2022/03/13 04:21:57;;;;;;;30.08;12.10;;;;;;;1.59;89.12;98296.56;5004080;28;20018;-66
2022/03/13 04:24:23;;;;;;;25.75;10.77;;;;;;;1.56;89.27;98296.53;5004219;28;20026;-66
2022/03/13 04:26:49;;;;;;;25.70;12.10;;;;;;;1.53;88.47;98297.38;5003930;28;20105;-66
2022/03/13 04:29:16;;;;;;;24.45;11.50;;;;;;;1.55;88.86;98295.66;5003872;28;20085;-66
2022/03/13 04:31:43;;;;;;;27.95;11.85;;;;;;;1.52;88.82;98299.97;5004037;28;20022;-66
2022/03/13 04:34:09;;;;;;;31.90;12.98;;;;;;;1.44;89.31;98301.59;5003858;28;20041;-66
2022/03/13 04:36:37;;;;;;;27.30;13.02;;;;;;;1.51;89.52;98304.25;5004142;28;20022;-66
2022/03/13 04:39:04;;;;;;;30.95;12.48;;;;;;;1.61;89.35;98300.03;5004231;28;20022;-66
2022/03/13 04:41:30;;;;;;;30.25;15.65;;;;;;;1.72;89.35;98294.13;5004199;28;20275;-66
2022/03/13 04:43:56;;;;;;;26.15;13.55;;;;;;;1.83;88.95;98294.19;5004181;28;20023;-66
2022/03/13 04:46:21;;;;;;;34.75;13.23;;;;;;;1.90;89.29;98294.28;5004104;28;20257;-66
2022/03/13 04:48:47;;;;;;;23.77;11.57;;;;;;;2.02;88.77;98298.69;5003715;28;20330;-66
2022/03/13 04:51:13;;;;;;;27.33;12.15;;;;;;;2.08;88.59;98304.81;5003736;28;20030;-66
2022/03/13 04:53:38;;;;;;;29.65;11.50;;;;;;;2.21;88.32;98316.16;5003879;28;20022;-66
2022/03/13 04:56:04;;;;;;;28.88;11.35;;;;;;;2.24;88.49;98305.81;5003729;28;20340;-66
2022/03/13 04:58:30;;;;;;;23.42;10.68;;;;;;;2.22;89.09;98312.72;5003890;28;20014;-66
2022/03/13 05:00:56;;;;;;;27.48;12.45;;;;;;;2.12;89.76;98321.31;5003432;28;20026;-66
2022/03/13 05:03:22;;;;;;;33.30;11.75;;;;;;;2.20;90.11;98322.22;5003640;28;20213;-66
2022/03/13 05:05:48;;;;;;;23.73;11.40;;;;;;;2.19;89.64;98325.69;5007051;28;20038;-66
2022/03/13 05:08:15;;;;;;;28.83;11.32;;;;;;;2.19;89.58;98330.88;5006937;28;20037;-66
2022/03/13 05:10:43;;;;;;;26.70;12.18;;;;;;;2.12;89.40;98326.50;5007329;28;20042;-66
2022/03/13 05:13:11;;;;;;;30.92;13.23;;;;;;;2.10;88.70;98323.88;5007489;28;20314;-66
2022/03/13 05:15:37;;;;;;;27.27;11.85;;;;;;;2.02;89.16;98315.16;5006978;28;20237;-66
2022/03/13 05:18:03;;;;;;;20.08;10.88;;;;;;;2.12;89.58;98321.31;5006828;28;20018;-66
2022/03/13 05:20:29;;;;;;;29.75;11.82;;;;;;;2.23;89.14;98314.47;5006710;28;20030;-66
2022/03/13 05:22:55;;;;;;;23.30;11.05;;;;;;;2.27;89.18;98310.19;5007071;28;20018;-66
2022/03/13 05:25:25;;;;;;;26.13;10.82;;;;;;;2.30;88.57;98305.00;5007268;28;20022;-66
2022/03/13 05:27:53;;;;;;;30.63;11.85;;;;;;;2.43;87.63;98327.63;5006879;28;20030;-66
2022/03/13 05:30:20;;;;;;;25.95;10.90;;;;;;;2.39;87.06;98321.50;5006837;28;20049;-66
2022/03/13 05:32:46;;;;;;;26.95;14.02;;;;;;;2.48;87.50;98321.59;5006698;28;20034;-65
2022/03/13 05:35:12;;;;;;;26.38;13.48;;;;;;;2.56;87.51;98319.91;5006828;28;20080;-65
2022/03/13 05:37:38;;;;;;;26.13;13.25;;;;;;;2.61;86.85;98320.81;5006858;28;20245;-65
2022/03/13 05:40:05;;;;;;;21.35;10.93;;;;;;;2.63;88.03;98321.69;5006961;28;20059;-65
2022/03/13 05:42:31;;;;;;;21.33;10.70;;;;;;;2.73;88.16;98320.91;5006740;28;20272;-65
2022/03/13 05:44:56;;;;;;;22.13;10.70;;;;;;;2.73;88.29;98318.31;5005085;28;20049;-65
2022/03/13 05:47:22;;;;;;;19.27;10.50;;;;;;;2.86;88.86;98320.09;5005835;28;20317;-65
2022/03/13 05:49:48;;;;;;;28.23;13.00;;;;;;;2.68;87.40;98317.38;5005866;28;20255;-65
2022/03/13 05:52:14;;;;;;;28.13;12.77;;;;;;;2.78;87.44;98316.56;5005650;28;20026;-65
2022/03/13 05:54:44;;;;;;;35.30;13.32;;;;;;;2.82;87.15;98315.75;5005531;28;20056;-65
2022/03/13 05:57:10;;;;;;;25.90;13.50;;;;;;;2.69;88.92;98311.31;5005173;28;20022;-65
2022/03/13 05:59:37;;;;;;;27.35;14.30;;;;;;;2.84;86.44;98314.03;5005839;28;20085;-65
2022/03/13 06:02:07;;;;;;;29.05;14.85;;;;;;;2.82;87.82;98305.38;5005768;28;20034;-65
2022/03/13 06:04:35;;;;;;;35.95;14.40;;;;;;;3.01;88.74;98322.75;5005331;28;20114;-65
2022/03/13 06:07:01;;;;;;;23.30;10.60;;;;;;;3.13;88.22;98332.38;5005262;28;20037;-65
2022/03/13 06:09:27;;;;;;;25.52;13.55;;;;;;;3.16;88.35;98327.19;5005237;28;20027;-65
2022/03/13 06:11:52;;;;;;;25.73;13.60;;;;;;;3.01;88.72;98319.31;5005553;28;20026;-65
2022/03/13 06:14:18;;;;;;;25.95;12.90;;;;;;;3.07;88.11;98334.94;5005419;28;20050;-65
2022/03/13 06:16:44;;;;;;;32.35;13.20;;;;;;;3.08;89.87;98332.38;5004950;28;20081;-65
2022/03/13 06:19:09;;;;;;;21.38;12.30;;;;;;;3.03;89.25;98318.47;5005181;28;20249;-65
2022/03/13 06:21:35;;;;;;;26.88;12.70;;;;;;;3.08;89.63;98321.97;5004962;28;20082;-65
2022/03/13 06:24:00;;;;;;;19.90;10.98;;;;;;;3.16;90.02;98330.66;5004694;28;20118;-65
2022/03/13 06:26:26;;;;;;;19.60;11.32;;;;;;;3.27;89.45;98321.19;5004644;28;20022;-65
2022/03/13 06:28:51;;;;;;;27.00;12.02;;;;;;;3.22;88.78;98322.00;5004775;28;20045;-65
2022/03/13 06:31:17;;;;;;;26.58;10.63;;;;;;;3.05;88.59;98316.75;5004884;28;20046;-65
2022/03/13 06:33:43;;;;;;;20.27;11.23;;;;;;;3.17;88.43;98322.00;5005083;28;20045;-65
2022/03/13 06:36:10;;;;;;;21.50;10.90;;;;;;;3.09;87.40;98323.69;5005703;28;20314;-65
2022/03/13 06:38:35;;;;;;;31.90;12.95;;;;;;;3.00;89.11;98333.19;5005722;28;20022;-65
2022/03/13 06:41:00;;;;;;;28.85;12.18;;;;;;;2.97;88.83;98333.16;5005854;28;20076;-65
2022/03/13 06:43:26;;;;;;;30.25;12.93;;;;;;;3.04;88.95;98333.19;5005647;28;20022;-65
2022/03/13 06:45:51;;;;;;;23.58;11.65;;;;;;;3.11;89.07;98341.91;5005540;28;20018;-65
2022/03/13 06:48:21;;;;;;;23.80;11.05;;;;;;;3.12;88.66;98328.91;5005596;28;20033;-65
2022/03/13 06:50:46;;;;;;;16.30;8.13;;;;;;;3.12;87.17;98331.50;5005488;28;20014;-65
2022/03/13 06:53:11;;;;;;;22.17;10.30;;;;;;;3.15;87.53;98323.72;5005494;28;20056;-65
2022/03/13 06:55:37;;;;;;;21.55;10.88;;;;;;;3.05;87.70;98331.47;5005345;28;20029;-65
2022/03/13 06:58:02;;;;;;;21.65;11.20;;;;;;;3.28;87.85;98325.50;5005298;28;20086;-65
2022/03/13 07:00:28;;;;;;;18.58;9.23;;;;;;;3.49;86.32;98325.59;5005074;28;20029;-65
2022/03/13 07:02:53;;;;;;;20.40;10.32;;;;;;;3.56;85.86;98331.69;5005175;28;20018;-65
2022/03/13 07:05:23;;;;;;;21.05;11.13;;;;;;;3.61;85.43;98325.63;5005031;28;20022;-65
2022/03/13 07:07:48;;;;;;;24.17;12.25;;;;;;;3.54;86.02;98329.06;5005033;28;20026;-65
2022/03/13 07:10:14;;;;;;;25.52;14.25;;;;;;;3.43;87.03;98325.59;5005057;28;20022;-65
2022/03/13 07:12:44;;;;;;;24.02;12.43;;;;;;;3.60;87.04;98318.69;5005039;28;20085;-65
2022/03/13 07:15:13;;;;;;;34.70;14.07;;;;;;;3.62;87.42;98327.38;5004949;28;20345;-65
2022/03/13 07:17:41;;;;;;;30.67;14.02;;;;;;;4.22;85.51;98327.50;5005342;28;20355;-65
2022/03/13 07:20:07;;;;;;;25.02;11.93;;;;;;;4.62;83.92;98328.31;5005112;28;20022;-65
2022/03/13 07:22:33;;;;;;;26.73;13.07;;;;;;;5.25;82.70;98328.19;5004886;28;20014;-65
2022/03/13 07:24:59;;;;;;;29.83;14.27;;;;;;;5.35;82.65;98329.88;5004884;28;20068;-65
2022/03/13 07:27:24;;;;;;;18.55;11.77;;;;;;;5.94;79.76;98333.13;5004222;28;20191;-65
2022/03/13 07:29:51;;;;;;;25.63;13.13;;;;;;;5.96;79.17;98327.88;5004358;28;20062;-65
2022/03/13 07:32:17;;;;;;;20.25;10.45;;;;;;;6.36;78.10;98326.75;5004719;28;20322;-65
2022/03/13 07:34:43;;;;;;;21.30;11.60;;;;;;;7.01;77.31;98328.75;5002901;28;20065;-65
2022/03/13 07:37:11;;;;;;;18.25;9.25;;;;;;;7.31;75.28;98318.81;5004284;28;20018;-65
2022/03/13 07:39:39;;;;;;;23.40;11.40;;;;;;;7.12;74.92;98312.06;5004526;28;20022;-67
2022/03/13 07:42:05;;;;;;;20.42;10.48;;;;;;;6.87;75.82;98314.94;5004707;28;20321;-66
2022/03/13 07:44:30;;;;;;;14.82;8.57;;;;;;;6.91;75.91;98311.41;5004532;28;20018;-66
2022/03/13 07:46:55;;;;;;;18.40;10.40;;;;;;;8.01;73.52;98322.25;5002571;28;20093;-66
2022/03/13 07:49:21;;;;;;;22.70;12.45;;;;;;;8.32;70.45;98315.72;5003372;28;20029;-66
2022/03/13 07:51:47;;;;;;;25.55;13.48;;;;;;;8.47;71.04;98318.09;5003503;28;20267;-66
2022/03/13 07:54:14;;;;;;;29.02;13.73;;;;;;;9.56;68.00;98319.56;5003623;28;20029;-66
2022/03/13 07:56:39;;;;;;;27.80;15.90;;;;;;;10.35;65.73;98324.00;5003319;28;20018;-66
2022/03/13 07:59:05;;;;;;;35.53;21.48;;;;;;;10.84;62.77;98324.53;5002887;28;20057;-66
2022/03/13 08:01:30;;;;;;;36.55;22.30;;;;;;;11.19;60.93;98320.97;5003377;28;20341;-66
2022/03/13 08:03:56;;;;;;;27.63;16.77;;;;;;;10.75;58.00;98314.22;5003049;28;20036;-66
2022/03/13 08:06:21;;;;;;;31.50;14.70;;;;;;;11.08;60.18;98323.91;5003068;28;20034;-65
2022/03/13 08:08:46;;;;;;;26.58;14.45;;;;;;;11.05;47.72;98318.72;5003637;28;20018;-66
2022/03/13 08:11:12;;;;;;;26.15;14.70;;;;;;;10.75;61.88;98314.22;5003311;28;20022;-66
2022/03/13 08:13:37;;;;;;;26.17;13.90;;;;;;;10.86;61.25;98318.31;5003351;28;20026;-66
2022/03/13 08:16:03;;;;;;;24.45;14.35;;;;;;;11.58;60.72;98318.09;5003375;28;20040;-66
2022/03/13 08:18:29;;;;;;;23.30;13.73;;;;;;;12.11;59.55;98317.44;5002887;28;20073;-66
2022/03/13 08:20:55;;;;;;;25.58;13.57;;;;;;;13.04;57.09;98327.63;5003423;28;20376;-66
2022/03/13 08:23:22;;;;;;;23.98;13.15;;;;;;;13.99;55.91;98323.31;5003966;28;20026;-66
2022/03/13 08:25:48;;;;;;;24.23;12.95;;;;;;;14.49;52.29;98331.03;5003677;28;20041;-67
2022/03/13 08:28:13;;;;;;;21.13;11.88;;;;;;;14.74;48.73;98320.31;5003574;28;20026;-67
2022/03/13 08:30:38;;;;;;;23.58;11.48;;;;;;;15.49;45.88;98322.41;5003841;28;20321;-67
2022/03/13 08:33:05;;;;;;;22.80;12.20;;;;;;;15.76;44.84;98315.03;5003846;28;20022;-67
2022/03/13 08:35:31;;;;;;;19.15;11.63;;;;;;;15.54;42.50;98304.53;5003410;28;20022;-67
2022/03/13 08:37:57;;;;;;;19.30;11.00;;;;;;;15.89;40.81;98314.41;5003891;28;20019;-67
2022/03/13 08:40:29;;;;;;;21.52;12.02;;;;;;;15.64;39.47;98297.00;5006512;28;20024;-67
2022/03/13 08:42:55;;;;;;;22.15;11.10;;;;;;;15.20;41.32;98301.56;5007866;28;20010;-66
2022/03/13 08:45:21;;;;;;;21.63;12.57;;;;;;;15.34;41.25;98301.81;5007969;28;20030;-67
2022/03/13 08:47:47;;;;;;;23.75;12.20;;;;;;;16.16;40.42;98309.59;5007668;28;20032;-67
2022/03/13 08:50:14;;;;;;;21.58;12.02;;;;;;;16.56;39.49;98320.97;5007624;28;20229;-67
2022/03/13 08:52:40;;;;;;;23.30;13.10;;;;;;;16.46;38.39;98313.53;5007594;28;20024;-67
2022/03/13 08:55:08;;;;;;;19.75;12.27;;;;;;;16.66;38.61;98301.00;5007796;28;20318;-67
2022/03/13 08:57:34;;;;;;;21.00;11.95;;;;;;;17.17;38.26;98301.06;5007939;28;20078;-67
2022/03/13 09:00:00;;;;;;;21.27;12.10;;;;;;;17.14;37.91;98306.53;5007222;28;20026;-67
2022/03/13 09:02:26;;;;;;;21.83;11.93;;;;;;;16.77;39.37;98303.97;5007459;28;20061;-67
2022/03/13 09:04:51;;;;;;;24.63;12.43;;;;;;;16.39;38.29;98318.22;5007594;28;20018;-67
2022/03/13 09:07:17;;;;;;;19.45;11.50;;;;;;;15.48;39.57;98304.78;5007623;28;20310;-67
2022/03/13 09:09:42;;;;;;;19.80;11.68;;;;;;;15.60;39.87;98292.78;5007386;28;20482;-67
2022/03/13 09:12:09;;;;;;;19.75;11.48;;;;;;;16.10;39.94;98305.44;5007491;28;20018;-67
2022/03/13 09:14:39;;;;;;;23.02;11.35;;;;;;;16.77;38.58;98303.97;5007056;28;20049;-67
2022/03/13 09:17:05;;;;;;;22.25;12.32;;;;;;;16.75;38.14;98308.53;5007152;28;20025;-67
2022/03/13 09:19:30;;;;;;;22.15;10.85;;;;;;;16.91;37.52;98296.19;5007522;28;20026;-67
2022/03/13 09:21:56;;;;;;;19.52;11.63;;;;;;;16.57;38.04;98308.53;5005893;28;20068;-67
2022/03/13 09:24:21;;;;;;;18.70;10.85;;;;;;;15.71;39.34;98291.34;5006701;28;20026;-67
2022/03/13 09:26:47;;;;;;;21.80;11.52;;;;;;;15.41;40.46;98292.69;5007144;28;20027;-67
2022/03/13 09:29:13;;;;;;;24.38;12.45;;;;;;;15.78;39.66;98298.09;5007345;28;20030;-67
2022/03/13 09:31:38;;;;;;;21.80;11.32;;;;;;;16.34;39.25;98299.00;5007288;28;20330;-67
2022/03/13 09:34:04;;;;;;;21.48;11.35;;;;;;;16.51;38.88;98301.72;5007274;28;20077;-67
2022/03/13 09:36:29;;;;;;;20.42;11.48;;;;;;;16.14;39.47;98288.44;5006927;28;20026;-67
2022/03/13 09:38:55;;;;;;;23.27;11.88;;;;;;;16.26;39.63;98295.00;5007114;28;20191;-67
2022/03/13 09:41:21;;;;;;;21.42;10.95;;;;;;;16.07;40.32;98292.31;5006540;28;20026;-67
2022/03/13 09:43:46;;;;;;;25.65;11.90;;;;;;;16.03;40.04;98289.88;5007076;28;20036;-67
2022/03/13 09:46:16;;;;;;;20.45;11.52;;;;;;;16.78;39.85;98303.06;5007198;28;20054;-67
2022/03/13 09:48:42;;;;;;;22.15;11.25;;;;;;;16.67;39.32;98304.50;5006962;28;20030;-67
2022/03/13 09:51:09;;;;;;;22.60;11.93;;;;;;;17.88;38.30;98307.13;5005781;28;20026;-67
2022/03/13 09:53:35;;;;;;;19.95;10.88;;;;;;;17.78;38.46;98305.88;5007145;28;20246;-67
2022/03/13 09:56:03;;;;;;;22.63;11.85;;;;;;;17.73;37.70;98303.47;5006830;28;20106;-67
2022/03/13 09:58:29;;;;;;;27.45;11.80;;;;;;;16.94;40.98;98301.38;5006507;28;20041;-67
2022/03/13 10:00:56;;;;;;;22.92;11.70;;;;;;;16.80;40.77;98303.00;5006644;28;20026;-67
2022/03/13 10:03:21;;;;;;;27.20;12.82;;;;;;;15.82;43.42;98299.69;5006640;28;20029;-67
2022/03/13 10:05:48;;;;;;;31.33;12.48;;;;;;;15.36;44.24;98299.97;5006380;28;20040;-67
2022/03/13 10:08:15;;;;;;;24.50;13.05;;;;;;;14.60;45.53;98293.53;5006310;28;20037;-67
2022/03/13 10:10:46;;;;;;;21.48;12.50;;;;;;;14.89;45.13;98287.88;5006661;28;20089;-67
2022/03/13 10:13:14;;;;;;;25.75;13.98;;;;;;;14.82;47.17;98292.59;5006314;28;20092;-67
2022/03/13 10:15:48;;;;;;;19.00;10.68;;;;;;;14.84;45.61;98289.88;5006141;28;20050;-67
2022/03/13 10:18:19;;;;;;;23.58;11.82;;;;;;;15.69;43.88;98292.38;5006058;28;20093;-67
2022/03/13 10:20:49;;;;;;;25.30;12.57;;;;;;;16.35;43.06;98297.19;5006350;28;20033;-67
2022/03/13 10:23:22;;;;;;;27.17;12.77;;;;;;;15.70;42.63;98271.06;5006498;28;20222;-67
2022/03/13 10:25:52;;;;;;;23.17;11.98;;;;;;;16.22;42.79;98277.47;5006315;28;20022;-67
2022/03/13 10:28:21;;;;;;;20.67;11.32;;;;;;;16.02;43.06;98275.75;5005914;28;20225;-67
2022/03/13 10:31:11;;;;;;;22.02;11.77;;;;;;;15.48;43.65;98278.28;5006307;28;20022;-67
2022/03/13 10:33:42;;;;;;;25.05;11.52;;;;;;;15.85;43.42;98278.31;5006082;28;20034;-67
2022/03/13 10:36:08;;;;;;;19.83;11.18;;;;;;;16.44;42.77;98279.06;5005850;28;20026;-67
2022/03/13 10:38:35;;;;;;;21.50;11.20;;;;;;;16.03;42.85;98277.47;5005774;28;20053;-67
2022/03/13 10:41:01;;;;;;;25.98;11.75;;;;;;;16.19;43.14;98280.25;5006238;28;20263;-67
2022/03/13 10:43:29;;;;;;;24.35;11.98;;;;;;;15.56;44.13;98265.50;5005674;28;20029;-67
2022/03/13 10:45:56;;;;;;;22.00;11.35;;;;;;;15.34;44.98;98267.34;5005933;28;20030;-67
2022/03/13 10:48:23;;;;;;;24.25;12.00;;;;;;;15.26;45.95;98266.84;5005539;28;20033;-67
2022/03/13 10:50:51;;;;;;;26.88;11.65;;;;;;;15.09;45.73;98269.34;5006053;28;20026;-67
2022/03/13 10:53:18;;;;;;;25.70;13.00;;;;;;;14.60;46.69;98270.56;5005766;28;20046;-67
2022/03/13 10:55:44;;;;;;;23.98;11.32;;;;;;;15.20;46.44;98267.13;5005914;28;20026;-67
2022/03/13 10:58:11;;;;;;;22.05;11.85;;;;;;;15.31;47.16;98264.00;5003983;28;20022;-67
2022/03/13 11:00:36;;;;;;;25.42;12.30;;;;;;;15.18;47.17;98264.53;5004625;28;20018;-67
2022/03/13 11:03:14;;;;;;;21.23;10.77;;;;;;;15.31;47.12;98264.84;5004433;28;20026;-67
2022/03/13 11:05:40;;;;;;;24.17;11.07;;;;;;;15.01;48.63;98264.41;4991210;28;20049;-67
2022/03/13 11:08:07;;;;;;;24.92;11.27;;;;;;;15.22;46.63;98264.41;5004556;28;20321;-67
2022/03/13 11:10:36;;;;;;;24.02;11.75;;;;;;;15.13;47.99;98265.66;5004700;28;20029;-67
2022/03/13 11:13:04;;;;;;;26.13;12.02;;;;;;;14.97;47.78;98264.59;5003934;28;20084;-67
2022/03/13 11:15:31;;;;;;;20.75;10.55;;;;;;;15.03;47.51;98267.81;5003906;28;20110;-67
2022/03/13 11:17:59;;;;;;;21.35;12.05;;;;;;;15.09;47.63;98274.66;5004067;28;20042;-67
2022/03/13 11:20:25;;;;;;;23.15;11.93;;;;;;;14.86;47.62;98261.53;5004209;28;20030;-67
2022/03/13 11:22:51;;;;;;;26.00;11.15;;;;;;;14.76;47.55;98260.19;5004204;28;20080;-67